Richmond Amo, Australia
Current Conditions -  °F | °C
As of 4:00 AM on Thursday 27 Nov 2014 (Local Time) from YSRI Reporting Station
Scattered Clouds Scattered Clouds  
Wind Chill: 64°   Ceiling: Unl
Heat Index: 64°   Visibility: 6mi
Dew Point: 61°   Wind: 6mph
Humidity: 88%   Direction: 200°SSW
Pressure: 30.06"   Gusts: NA
Location:  33.6°S, 150.78°E
Report Text: YSRI 261700Z AUTO 20005KT 9999 // SCT046 18/16 Q1018
Loading
Personal Weather Stations






























Interactive Weather Map New forecast layout! Learn more

10-Day Weather Forecast

Advertisements
Track Severe Weather on mobile